createdAt,value
2019-01-12T00:00:30.543Z,6.94
2019-01-12T00:01:30.467Z,6.87
2019-01-12T00:02:30.444Z,6.81
2019-01-12T00:03:30.401Z,6.83
2019-01-12T00:04:30.461Z,6.83
2019-01-12T00:05:30.332Z,6.90
2019-01-12T00:06:32.317Z,6.86
2019-01-12T00:07:30.268Z,6.91
2019-01-12T00:08:30.291Z,6.87
2019-01-12T00:09:30.225Z,6.79
2019-01-12T00:10:30.204Z,6.83
2019-01-12T00:11:30.142Z,6.83
2019-01-12T00:12:30.183Z,6.78
2019-01-12T00:13:30.083Z,6.81
2019-01-12T00:14:30.083Z,6.83
2019-01-12T00:15:30.015Z,6.71
2019-01-12T00:16:32.034Z,6.79
2019-01-12T00:17:29.954Z,6.81
2019-01-12T00:18:29.926Z,6.83
2019-01-12T00:19:29.879Z,6.79
2019-01-12T00:20:30.942Z,6.76
2019-01-12T00:21:29.822Z,6.82
2019-01-12T00:22:29.851Z,6.79
2019-01-12T00:23:29.784Z,6.72
2019-01-12T00:24:31.789Z,6.75
2019-01-12T00:25:29.688Z,6.79
2019-01-12T00:26:29.730Z,6.72
2019-01-12T00:27:29.652Z,6.79
2019-01-12T00:28:30.677Z,6.78
2019-01-12T00:29:29.578Z,6.75
2019-01-12T00:30:29.562Z,6.75
2019-01-12T00:31:29.511Z,6.65
2019-01-12T00:32:29.564Z,6.73
2019-01-12T00:33:29.451Z,6.73
2019-01-12T00:34:30.500Z,6.79
2019-01-12T00:35:29.387Z,6.73
2019-01-12T00:36:29.396Z,6.72
2019-01-12T00:37:29.325Z,6.69
2019-01-12T00:38:31.359Z,6.69
2019-01-12T00:39:29.259Z,6.75
2019-01-12T00:40:29.313Z,6.76
2019-01-12T00:41:29.180Z,6.65
2019-01-12T00:42:30.259Z,6.76
2019-01-12T00:43:29.147Z,6.72
2019-01-12T00:44:29.091Z,6.64
2019-01-12T00:45:29.069Z,6.75
2019-01-12T00:46:29.058Z,6.71
2019-01-12T00:47:29.004Z,6.73
2019-01-12T00:48:29.053Z,6.69
2019-01-12T00:49:28.916Z,6.72
2019-01-12T00:50:28.965Z,6.73
2019-01-12T00:51:28.878Z,6.72
2019-01-12T00:52:28.874Z,6.72
2019-01-12T00:53:28.799Z,6.73
2019-01-12T00:54:28.786Z,6.86
2019-01-12T00:55:28.734Z,6.69
2019-01-12T00:56:28.810Z,6.72
2019-01-12T00:57:28.669Z,6.75
2019-01-12T00:58:28.732Z,6.64
2019-01-12T00:59:28.611Z,6.72
2019-01-12T01:00:28.636Z,6.72
2019-01-12T01:01:28.570Z,6.73
2019-01-12T01:02:28.541Z,6.65
2019-01-12T01:03:28.506Z,6.75
2019-01-12T01:04:28.571Z,6.72
2019-01-12T01:05:28.421Z,6.69
2019-01-12T01:06:28.464Z,6.76
2019-01-12T01:07:28.356Z,6.71
2019-01-12T01:08:28.390Z,6.69
2019-01-12T01:09:28.286Z,6.69
2019-01-12T01:10:28.278Z,6.65
2019-01-12T01:11:28.235Z,6.60
2019-01-12T01:12:29.872Z,6.73
2019-01-12T01:13:28.155Z,6.69
2019-01-12T01:14:28.209Z,6.71
2019-01-12T01:15:28.099Z,6.76
2019-01-12T01:16:28.117Z,6.76
2019-01-12T01:17:28.025Z,6.65
2019-01-12T01:18:28.015Z,6.69
2019-01-12T01:19:27.980Z,6.69
2019-01-12T01:20:27.945Z,6.71
2019-01-12T01:21:27.906Z,6.71
2019-01-12T01:22:27.891Z,6.71
2019-01-12T01:23:27.845Z,6.73
2019-01-12T01:24:27.810Z,6.71
2019-01-12T01:25:27.796Z,6.69
2019-01-12T01:26:27.750Z,6.69
2019-01-12T01:27:27.709Z,6.65
2019-01-12T01:28:27.714Z,6.69
2019-01-12T01:29:27.654Z,6.73
2019-01-12T01:30:27.622Z,6.64
2019-01-12T01:31:27.576Z,6.69
2019-01-12T01:32:27.550Z,6.68
2019-01-12T01:33:28.050Z,6.65
2019-01-12T01:34:27.487Z,6.68
2019-01-12T01:35:27.459Z,6.73
2019-01-12T01:36:27.431Z,6.71
2019-01-12T01:37:27.395Z,6.73
2019-01-12T01:38:27.355Z,6.75
2019-01-12T01:39:27.319Z,6.71
2019-01-12T01:40:27.306Z,6.68
2019-01-12T01:41:27.270Z,6.65
2019-01-12T01:42:29.256Z,6.63
2019-01-12T01:43:27.199Z,6.63
2019-01-12T01:44:27.195Z,6.61
2019-01-12T01:45:27.133Z,6.69
2019-01-12T01:46:27.119Z,6.57
2019-01-12T01:47:27.086Z,6.68
2019-01-12T01:48:28.050Z,6.53
2019-01-12T01:49:27.019Z,6.63
2019-01-12T01:50:26.978Z,6.65
2019-01-12T01:51:26.945Z,6.68
2019-01-12T01:52:26.935Z,6.60
2019-01-12T01:53:26.879Z,6.61
2019-01-12T01:54:26.858Z,6.58
2019-01-12T01:55:26.820Z,6.57
2019-01-12T01:56:27.792Z,6.63
2019-01-12T01:57:26.746Z,6.54
2019-01-12T01:58:28.758Z,6.61
2019-01-12T01:59:26.701Z,6.61
2019-01-12T02:00:28.676Z,6.64
2019-01-12T02:01:26.624Z,6.63
2019-01-12T02:02:26.595Z,6.64
2019-01-12T02:03:26.556Z,6.63
2019-01-12T02:04:26.544Z,6.58
2019-01-12T02:05:26.491Z,6.60
2019-01-12T02:06:26.480Z,6.58
2019-01-12T02:07:26.433Z,6.57
2019-01-12T02:08:26.408Z,6.54
2019-01-12T02:09:26.384Z,6.53
2019-01-12T02:10:26.343Z,6.53
2019-01-12T02:11:26.329Z,6.57
2019-01-12T02:12:26.274Z,6.58
2019-01-12T02:13:26.245Z,6.57
2019-01-12T02:14:27.229Z,6.54
2019-01-12T02:15:26.178Z,6.51
2019-01-12T02:16:27.161Z,6.46
2019-01-12T02:17:26.113Z,6.57
2019-01-12T02:18:26.081Z,6.68
2019-01-12T02:19:26.056Z,6.55
2019-01-12T02:20:26.032Z,6.51
2019-01-12T02:21:26.006Z,6.51
2019-01-12T02:22:25.958Z,6.54
2019-01-12T02:23:25.932Z,6.64
2019-01-12T02:24:27.925Z,6.48
2019-01-12T02:25:25.898Z,6.53
2019-01-12T02:26:25.845Z,6.53
2019-01-12T02:27:25.794Z,6.46
2019-01-12T02:28:25.771Z,6.54
2019-01-12T02:29:25.733Z,6.54
2019-01-12T02:30:25.696Z,6.53
2019-01-12T02:31:25.678Z,6.45
2019-01-12T02:32:25.656Z,6.51
2019-01-12T02:33:25.599Z,6.54
2019-01-12T02:34:25.585Z,6.58
2019-01-12T02:35:25.544Z,6.45
2019-01-12T02:36:26.534Z,6.58
2019-01-12T02:37:25.481Z,6.48
2019-01-12T02:38:25.452Z,6.58
2019-01-12T02:39:25.425Z,6.57
2019-01-12T02:40:25.390Z,6.58
2019-01-12T02:41:25.347Z,6.51
2019-01-12T02:42:25.321Z,6.58
2019-01-12T02:43:25.297Z,6.61
2019-01-12T02:44:25.269Z,6.53
2019-01-12T02:45:25.222Z,6.60
2019-01-12T02:46:25.191Z,6.63
2019-01-12T02:47:25.165Z,6.60
2019-01-12T02:48:26.140Z,6.57
2019-01-12T02:49:25.098Z,6.54
2019-01-12T02:50:25.074Z,6.58
2019-01-12T02:51:25.039Z,6.64
2019-01-12T02:52:25.028Z,6.53
2019-01-12T02:53:24.969Z,6.48
2019-01-12T02:54:24.968Z,6.58
2019-01-12T02:55:24.904Z,6.68
2019-01-12T02:56:24.904Z,6.60
2019-01-12T02:57:24.861Z,6.61
2019-01-12T02:58:24.820Z,6.54
2019-01-12T02:59:24.772Z,6.53
2019-01-12T03:00:24.763Z,6.48
2019-01-12T03:01:24.740Z,6.51
2019-01-12T03:02:24.712Z,6.48
2019-01-12T03:03:24.659Z,6.55
2019-01-12T03:04:24.647Z,6.45
2019-01-12T03:05:24.597Z,6.51
2019-01-12T03:06:24.562Z,6.46
2019-01-12T03:07:24.541Z,6.50
2019-01-12T03:08:25.492Z,6.51
2019-01-12T03:09:24.459Z,6.51
2019-01-12T03:10:24.444Z,6.50
2019-01-12T03:11:24.389Z,6.48
2019-01-12T03:12:24.377Z,6.43
2019-01-12T03:13:24.334Z,6.51
2019-01-12T03:14:24.305Z,6.50
2019-01-12T03:15:24.270Z,6.46
2019-01-12T03:16:24.254Z,6.54
2019-01-12T03:17:24.239Z,6.42
2019-01-12T03:18:24.182Z,6.46
2019-01-12T03:19:24.144Z,6.43
2019-01-12T03:20:24.112Z,6.50
2019-01-12T03:21:24.069Z,6.51
2019-01-12T03:22:24.050Z,6.43
2019-01-12T03:23:24.024Z,6.50
2019-01-12T03:24:23.999Z,6.45
2019-01-12T03:25:23.947Z,6.53
2019-01-12T03:26:23.915Z,6.54
2019-01-12T03:27:23.877Z,6.53
2019-01-12T03:28:23.859Z,6.51
2019-01-12T03:29:23.823Z,6.46
2019-01-12T03:30:23.808Z,6.51
2019-01-12T03:31:23.772Z,6.50
2019-01-12T03:32:24.727Z,6.51
2019-01-12T03:33:23.718Z,6.51
2019-01-12T03:34:45.680Z,6.46
2019-01-12T03:35:23.639Z,6.46
2019-01-12T03:36:24.616Z,6.48
2019-01-12T03:37:23.565Z,6.53
2019-01-12T03:38:23.550Z,6.50
2019-01-12T03:39:23.529Z,6.46
2019-01-12T03:40:40.202Z,6.51
2019-01-12T03:41:23.439Z,6.45
2019-01-12T03:42:23.419Z,6.45
2019-01-12T03:43:23.380Z,6.46
2019-01-12T03:44:23.365Z,6.48
2019-01-12T03:45:23.310Z,6.50
2019-01-12T03:46:23.298Z,6.50
2019-01-12T03:47:23.257Z,6.42
2019-01-12T03:48:23.222Z,6.48
2019-01-12T03:49:23.197Z,6.50
2019-01-12T03:50:23.163Z,6.48
2019-01-12T03:51:23.118Z,6.51
2019-01-12T03:52:23.093Z,6.48
2019-01-12T03:53:23.065Z,6.45
2019-01-12T03:54:23.044Z,6.45
2019-01-12T03:55:25.736Z,6.48
2019-01-12T03:56:22.961Z,6.46
2019-01-12T03:57:22.969Z,6.40
2019-01-12T03:58:22.885Z,6.48
2019-01-12T03:59:22.870Z,6.48
2019-01-12T04:00:22.835Z,6.46
2019-01-12T04:01:22.802Z,6.48
2019-01-12T04:02:22.774Z,6.42
2019-01-12T04:03:23.745Z,6.50
2019-01-12T04:04:22.715Z,6.42
2019-01-12T04:05:22.677Z,6.35
2019-01-12T04:06:22.643Z,6.39
2019-01-12T04:07:22.613Z,6.46
2019-01-12T04:08:22.592Z,6.46
2019-01-12T04:09:22.554Z,6.43
2019-01-12T04:10:22.516Z,6.43
2019-01-12T04:11:22.485Z,6.39
2019-01-12T04:12:22.441Z,6.40
2019-01-12T04:13:23.425Z,6.43
2019-01-12T04:14:22.376Z,6.46
2019-01-12T04:15:22.360Z,6.46
2019-01-12T04:16:22.351Z,6.39
2019-01-12T04:17:22.295Z,6.48
2019-01-12T04:18:22.249Z,6.36
2019-01-12T04:19:22.230Z,6.42
2019-01-12T04:20:22.199Z,6.38
2019-01-12T04:21:22.182Z,6.40
2019-01-12T04:22:22.120Z,6.42
2019-01-12T04:23:22.092Z,6.28
2019-01-12T04:24:22.078Z,6.35
2019-01-12T04:25:22.041Z,6.36
2019-01-12T04:26:22.017Z,6.36
2019-01-12T04:27:23.991Z,6.38
2019-01-12T04:28:21.947Z,6.32
2019-01-12T04:29:21.908Z,6.25
2019-01-12T04:30:21.862Z,6.33
2019-01-12T04:31:22.841Z,6.43
2019-01-12T04:32:21.829Z,6.33
2019-01-12T04:33:21.781Z,6.35
2019-01-12T04:34:21.739Z,6.33
2019-01-12T04:35:21.721Z,6.32
2019-01-12T04:36:21.689Z,6.35
2019-01-12T04:37:21.671Z,6.28
2019-01-12T04:38:21.631Z,6.30
2019-01-12T04:39:28.209Z,6.32
2019-01-12T04:40:21.577Z,6.36
2019-01-12T04:41:21.524Z,6.32
2019-01-12T04:42:21.487Z,6.38
2019-01-12T04:43:21.464Z,6.33
2019-01-12T04:44:21.448Z,6.33
2019-01-12T04:45:21.403Z,6.33
2019-01-12T04:46:21.373Z,6.32
2019-01-12T04:47:21.332Z,6.39
2019-01-12T04:48:21.305Z,6.35
2019-01-12T04:49:21.267Z,6.30
2019-01-12T04:50:21.248Z,6.32
2019-01-12T04:51:21.237Z,6.36
2019-01-12T04:52:21.176Z,6.40
2019-01-12T04:53:21.156Z,6.33
2019-01-12T04:54:21.109Z,6.27
2019-01-12T04:55:21.072Z,6.25
2019-01-12T04:56:21.056Z,6.27
2019-01-12T04:57:21.046Z,6.30
2019-01-12T04:58:20.982Z,6.30
2019-01-12T04:59:20.973Z,6.25
2019-01-12T05:00:20.916Z,6.28
2019-01-12T05:01:20.936Z,6.33
2019-01-12T05:02:20.929Z,6.27
2019-01-12T05:03:20.823Z,6.28
2019-01-12T05:04:20.814Z,6.21
2019-01-12T05:05:20.765Z,6.33
2019-01-12T05:06:20.723Z,6.27
2019-01-12T05:07:20.698Z,6.36
2019-01-12T05:08:20.658Z,6.32
2019-01-12T05:09:21.658Z,6.30
2019-01-12T05:10:20.587Z,6.27
2019-01-12T05:11:20.559Z,6.33
2019-01-12T05:12:20.527Z,6.28
2019-01-12T05:13:21.550Z,6.27
2019-01-12T05:14:20.485Z,6.21
2019-01-12T05:15:20.428Z,6.24
2019-01-12T05:16:20.409Z,6.30
2019-01-12T05:17:20.380Z,6.19
2019-01-12T05:18:20.343Z,6.21
2019-01-12T05:19:20.309Z,6.32
2019-01-12T05:20:20.291Z,6.28
2019-01-12T05:21:20.250Z,6.25
2019-01-12T05:22:20.212Z,6.20
2019-01-12T05:23:20.205Z,6.24
2019-01-12T05:24:20.155Z,6.16
2019-01-12T05:25:20.145Z,6.24
2019-01-12T05:26:20.104Z,6.19
2019-01-12T05:27:21.061Z,6.06
2019-01-12T05:28:20.016Z,6.14
2019-01-12T05:29:19.990Z,6.13
2019-01-12T05:30:19.957Z,6.11
2019-01-12T05:31:19.931Z,6.06
2019-01-12T05:32:19.931Z,6.10
2019-01-12T05:33:19.862Z,6.02
2019-01-12T05:34:19.910Z,6.06
2019-01-12T05:35:19.827Z,6.05
2019-01-12T05:36:19.766Z,6.03
2019-01-12T05:37:19.742Z,6.02
2019-01-12T05:38:19.700Z,6.06
2019-01-12T05:39:19.677Z,6.01
2019-01-12T05:40:19.631Z,6.02
2019-01-12T05:41:19.607Z,5.99
2019-01-12T05:42:19.611Z,6.06
2019-01-12T05:43:21.556Z,6.03
2019-01-12T05:44:19.530Z,6.05
2019-01-12T05:45:20.538Z,6.01
2019-01-12T05:46:19.475Z,6.05
2019-01-12T05:47:19.438Z,5.87
2019-01-12T05:48:19.420Z,6.08
2019-01-12T05:49:21.394Z,6.10
2019-01-12T05:50:19.347Z,6.01
2019-01-12T05:51:19.324Z,5.99
2019-01-12T05:52:19.294Z,6.01
2019-01-12T05:53:19.226Z,6.02
2019-01-12T05:54:19.192Z,6.02
2019-01-12T05:55:19.189Z,5.88
2019-01-12T05:56:19.138Z,6.03
2019-01-12T05:57:19.099Z,6.01
2019-01-12T05:58:19.064Z,5.98
2019-01-12T05:59:19.025Z,6.02
2019-01-12T06:00:18.988Z,6.05
2019-01-12T06:01:18.970Z,5.96
2019-01-12T06:02:18.937Z,6.02
2019-01-12T06:03:18.912Z,5.96
2019-01-12T06:04:18.956Z,6.05
2019-01-12T06:05:18.847Z,6.03
2019-01-12T06:06:18.803Z,6.01
2019-01-12T06:07:18.787Z,6.02
2019-01-12T06:08:18.746Z,5.96
2019-01-12T06:09:18.708Z,5.95
2019-01-12T06:10:18.689Z,5.96
2019-01-12T06:11:18.666Z,6.01
2019-01-12T06:12:19.630Z,5.93
2019-01-12T06:13:18.602Z,5.95
2019-01-12T06:14:18.548Z,5.96
2019-01-12T06:15:18.523Z,6.01
2019-01-12T06:16:18.511Z,5.95
2019-01-12T06:17:18.461Z,6.01
2019-01-12T06:18:18.441Z,5.95
2019-01-12T06:19:18.398Z,5.95
2019-01-12T06:20:19.368Z,5.99
2019-01-12T06:21:18.334Z,6.02
2019-01-12T06:22:18.342Z,6.01
2019-01-12T06:23:18.260Z,5.96
2019-01-12T06:24:18.256Z,6.01
2019-01-12T06:25:18.203Z,6.03
2019-01-12T06:26:18.187Z,5.98
2019-01-12T06:27:18.151Z,5.98
2019-01-12T06:28:18.120Z,6.05
2019-01-12T06:29:18.082Z,5.99
2019-01-12T06:30:18.050Z,6.02
2019-01-12T06:31:18.013Z,5.95
2019-01-12T06:32:18.981Z,6.01
2019-01-12T06:33:17.951Z,5.96
2019-01-12T06:34:17.921Z,5.96
2019-01-12T06:35:17.905Z,6.02
2019-01-12T06:36:18.896Z,5.90
2019-01-12T06:37:17.828Z,5.98
2019-01-12T06:38:17.797Z,5.92
2019-01-12T06:39:17.763Z,5.84
2019-01-12T06:40:18.741Z,5.93
2019-01-12T06:41:17.715Z,5.92
2019-01-12T06:42:17.718Z,5.88
2019-01-12T06:43:17.627Z,5.88
2019-01-12T06:44:17.601Z,5.95
2019-01-12T06:45:17.595Z,5.93
2019-01-12T06:46:17.585Z,5.98
2019-01-12T06:47:17.504Z,5.87
2019-01-12T06:48:17.478Z,5.90
2019-01-12T06:49:17.442Z,5.90
2019-01-12T06:50:17.415Z,5.84
2019-01-12T06:51:17.368Z,5.83
2019-01-12T06:52:17.366Z,5.93
2019-01-12T06:53:17.311Z,5.90
2019-01-12T06:54:17.288Z,5.90
2019-01-12T06:55:17.243Z,5.95
2019-01-12T06:56:17.215Z,5.90
2019-01-12T06:57:17.172Z,5.90
2019-01-12T06:58:17.171Z,5.90
2019-01-12T06:59:17.150Z,5.95
2019-01-12T07:00:17.125Z,5.95
2019-01-12T07:01:17.047Z,5.90
2019-01-12T07:02:17.038Z,5.87
2019-01-12T07:03:16.994Z,5.92
2019-01-12T07:04:16.984Z,5.92
2019-01-12T07:05:16.937Z,5.95
2019-01-12T07:06:16.891Z,5.92
2019-01-12T07:07:16.866Z,5.90
2019-01-12T07:08:16.845Z,5.98
2019-01-12T07:09:16.795Z,5.92
2019-01-12T07:10:16.783Z,5.90
2019-01-12T07:11:16.739Z,5.95
2019-01-12T07:12:16.705Z,5.92
2019-01-12T07:13:16.674Z,5.98
2019-01-12T07:14:16.650Z,5.95
2019-01-12T07:15:16.605Z,5.99
2019-01-12T07:16:16.587Z,6.01
2019-01-12T07:17:16.532Z,6.01
2019-01-12T07:18:16.521Z,5.95
2019-01-12T07:19:16.495Z,6.01
2019-01-12T07:20:16.453Z,5.96
2019-01-12T07:21:16.421Z,5.98
2019-01-12T07:22:16.389Z,6.02
2019-01-12T07:23:16.349Z,6.10
2019-01-12T07:24:16.328Z,6.05
2019-01-12T07:25:16.289Z,6.06
2019-01-12T07:26:17.659Z,6.06
2019-01-12T07:27:16.238Z,6.08
2019-01-12T07:28:16.199Z,6.10
2019-01-12T07:29:16.171Z,6.03
2019-01-12T07:30:16.128Z,6.01
2019-01-12T07:31:16.097Z,6.03
2019-01-12T07:32:16.099Z,6.06
2019-01-12T07:33:16.041Z,6.03
2019-01-12T07:34:16.014Z,5.96
2019-01-12T07:35:15.973Z,6.10
2019-01-12T07:36:15.940Z,6.03
2019-01-12T07:37:15.915Z,6.05
2019-01-12T07:38:16.871Z,6.01
2019-01-12T07:39:15.851Z,6.01
2019-01-12T07:40:15.813Z,6.03
2019-01-12T07:41:15.792Z,6.06
2019-01-12T07:42:15.763Z,6.05
2019-01-12T07:43:15.720Z,5.99
2019-01-12T07:44:15.683Z,6.01
2019-01-12T07:45:15.693Z,6.01
2019-01-12T07:46:15.660Z,6.03
2019-01-12T07:47:15.589Z,6.02
2019-01-12T07:48:16.561Z,5.99
2019-01-12T07:49:15.544Z,6.02
2019-01-12T07:50:15.534Z,6.02
2019-01-12T07:51:15.455Z,6.01
2019-01-12T07:52:15.426Z,6.02
2019-01-12T07:53:15.388Z,5.96
2019-01-12T07:54:15.362Z,6.01
2019-01-12T07:55:15.415Z,6.02
2019-01-12T07:56:15.320Z,5.98
2019-01-12T07:57:15.274Z,5.98
2019-01-12T07:58:15.261Z,6.01
2019-01-12T07:59:15.204Z,6.03
2019-01-12T08:00:15.170Z,5.90
2019-01-12T08:01:15.155Z,6.03
2019-01-12T08:02:15.106Z,5.96
2019-01-12T08:03:15.089Z,6.01
2019-01-12T08:04:15.044Z,5.95
2019-01-12T08:05:15.002Z,5.87
2019-01-12T08:06:14.978Z,5.95
2019-01-12T08:07:14.967Z,5.93
2019-01-12T08:08:14.944Z,5.95
2019-01-12T08:09:14.885Z,5.93
2019-01-12T08:10:14.848Z,5.99
2019-01-12T08:11:14.813Z,5.93
2019-01-12T08:12:14.800Z,5.99
2019-01-12T08:13:14.762Z,5.95
2019-01-12T08:14:14.728Z,5.96
2019-01-12T08:15:14.689Z,5.93
2019-01-12T08:16:14.660Z,5.95
2019-01-12T08:17:14.618Z,5.92
2019-01-12T08:18:14.612Z,6.03
2019-01-12T08:19:14.618Z,5.93
2019-01-12T08:20:14.531Z,5.98
2019-01-12T08:21:14.493Z,6.02
2019-01-12T08:22:14.490Z,5.96
2019-01-12T08:23:14.435Z,6.01
2019-01-12T08:24:14.402Z,5.98
2019-01-12T08:25:14.419Z,5.98
2019-01-12T08:26:14.342Z,6.01
2019-01-12T08:27:14.324Z,6.03
2019-01-12T08:28:14.269Z,5.99
2019-01-12T08:29:14.323Z,5.99
2019-01-12T08:30:14.230Z,6.03
2019-01-12T08:31:14.222Z,6.02
2019-01-12T08:32:14.156Z,6.01
2019-01-12T08:33:14.137Z,6.06
2019-01-12T08:34:14.073Z,5.99
2019-01-12T08:35:14.155Z,6.08
2019-01-12T08:36:14.035Z,6.05
2019-01-12T08:37:14.071Z,6.03
2019-01-12T08:38:13.962Z,6.06
2019-01-12T08:39:13.990Z,6.08
2019-01-12T08:40:13.913Z,6.10
2019-01-12T08:41:20.846Z,6.08
2019-01-12T08:42:13.837Z,6.10
2019-01-12T08:43:15.840Z,6.08
2019-01-12T08:44:13.764Z,6.16
2019-01-12T08:45:20.373Z,6.14
2019-01-12T08:46:13.720Z,6.05
2019-01-12T08:47:13.729Z,6.11
2019-01-12T08:48:13.638Z,6.10
2019-01-12T08:49:13.633Z,6.14
2019-01-12T08:50:13.570Z,6.11
2019-01-12T08:51:13.643Z,6.13
2019-01-12T08:52:13.508Z,6.17
2019-01-12T08:53:13.565Z,6.20
2019-01-12T08:54:13.451Z,6.20
2019-01-12T08:55:14.498Z,6.30
2019-01-12T08:56:13.370Z,6.21
2019-01-12T08:57:13.387Z,6.20
2019-01-12T08:58:13.337Z,6.28
2019-01-12T08:59:15.335Z,6.21
2019-01-12T09:00:13.248Z,6.20
2019-01-12T09:01:13.376Z,6.28
2019-01-12T09:02:13.189Z,6.32
2019-01-12T09:03:13.209Z,6.21
2019-01-12T09:04:13.122Z,6.27
2019-01-12T09:05:13.134Z,6.28
2019-01-12T09:06:13.066Z,6.24
2019-01-12T09:07:13.136Z,6.35
2019-01-12T09:08:13.004Z,6.40
2019-01-12T09:09:14.075Z,6.36
2019-01-12T09:10:12.940Z,6.30
2019-01-12T09:11:12.924Z,6.32
2019-01-12T09:12:12.875Z,6.27
2019-01-12T09:13:12.867Z,6.27
2019-01-12T09:14:12.837Z,6.17
2019-01-12T09:15:12.793Z,6.21
2019-01-12T09:16:21.258Z,6.17
2019-01-12T09:17:12.711Z,6.21
2019-01-12T09:18:14.804Z,6.21
2019-01-12T09:19:12.639Z,6.19
2019-01-12T09:20:12.668Z,6.14
2019-01-12T09:21:12.602Z,6.11
2019-01-12T09:22:13.601Z,6.13
2019-01-12T09:23:12.522Z,6.14
2019-01-12T09:24:19.359Z,6.14
2019-01-12T09:25:12.457Z,6.03
2019-01-12T09:26:12.505Z,6.03
2019-01-12T09:27:12.397Z,6.13
2019-01-12T09:28:14.517Z,6.06
2019-01-12T09:29:12.374Z,6.10
2019-01-12T09:30:13.411Z,6.13
2019-01-12T09:31:12.261Z,6.16
2019-01-12T09:32:18.777Z,6.10
2019-01-12T09:33:12.193Z,6.14
2019-01-12T09:34:13.267Z,6.06
2019-01-12T09:35:12.153Z,6.13
2019-01-12T09:36:13.176Z,6.19
2019-01-12T09:37:12.061Z,6.11
2019-01-12T09:38:18.855Z,6.11
2019-01-12T09:39:12.024Z,6.20
2019-01-12T09:40:12.114Z,6.16
2019-01-12T09:41:11.945Z,6.20
2019-01-12T09:42:11.916Z,6.21
2019-01-12T09:43:11.875Z,6.13
2019-01-12T09:44:11.862Z,6.13
2019-01-12T09:45:11.814Z,6.11
2019-01-12T09:46:28.816Z,6.24
2019-01-12T09:47:13.069Z,6.17
2019-01-12T09:48:20.289Z,6.13
2019-01-12T09:49:11.732Z,6.17
2019-01-12T09:50:11.703Z,6.19
2019-01-12T09:51:11.626Z,6.19
2019-01-12T09:52:12.624Z,6.10
2019-01-12T09:53:11.571Z,6.10
2019-01-12T09:54:27.284Z,6.19
2019-01-12T09:55:11.522Z,6.19
2019-01-12T09:56:11.485Z,6.20
2019-01-12T09:57:12.447Z,6.13
2019-01-12T09:58:11.414Z,6.17
2019-01-12T09:59:18.273Z,6.24
2019-01-12T10:00:11.350Z,6.20
2019-01-12T10:01:11.332Z,6.19
2019-01-12T10:02:11.285Z,6.17
2019-01-12T10:03:32.279Z,6.21
2019-01-12T10:04:11.212Z,6.28
2019-01-12T10:05:27.776Z,6.20
2019-01-12T10:06:11.156Z,6.35
2019-01-12T10:07:13.139Z,6.33
2019-01-12T10:08:11.081Z,6.30
2019-01-12T10:09:17.784Z,6.27
2019-01-12T10:10:11.017Z,6.25
2019-01-12T10:11:12.000Z,6.25
2019-01-12T10:12:10.952Z,6.21
2019-01-12T10:14:10.892Z,6.21
2019-01-12T10:15:10.874Z,6.27
2019-01-12T10:16:10.833Z,6.24
2019-01-12T10:17:10.816Z,6.25
2019-01-12T10:18:10.772Z,6.30
2019-01-12T10:19:25.296Z,6.27
2019-01-12T10:20:10.710Z,6.30
2019-01-12T10:21:27.308Z,6.30
2019-01-12T10:22:10.649Z,6.30
2019-01-12T10:23:11.610Z,6.33
2019-01-12T10:24:10.586Z,6.28
2019-01-12T10:25:11.552Z,6.27
2019-01-12T10:26:10.527Z,6.24
2019-01-12T10:27:10.493Z,6.28
2019-01-12T10:28:10.452Z,6.28
2019-01-12T10:29:11.537Z,6.35
2019-01-12T10:30:10.391Z,6.35
2019-01-12T10:31:25.273Z,6.33
2019-01-12T10:32:10.348Z,6.42
2019-01-12T10:33:11.335Z,6.38
2019-01-12T10:34:10.263Z,6.27
2019-01-12T10:35:18.787Z,6.35
2019-01-12T10:36:10.208Z,6.30
2019-01-12T10:37:16.884Z,6.35
2019-01-12T10:38:10.154Z,6.28
2019-01-12T10:39:24.882Z,6.33
2019-01-12T10:40:10.079Z,6.35
2019-01-12T10:41:10.045Z,6.39
2019-01-12T10:42:10.016Z,6.32
2019-01-12T10:43:11.089Z,6.35
2019-01-12T10:44:09.948Z,6.30
2019-01-12T10:45:09.978Z,6.40
2019-01-12T10:46:09.866Z,6.35
2019-01-12T10:47:09.887Z,6.38
2019-01-12T10:48:09.821Z,6.38
2019-01-12T10:49:16.298Z,6.33
2019-01-12T10:50:09.755Z,6.39
2019-01-12T10:51:09.764Z,6.35
2019-01-12T10:52:09.699Z,6.39
2019-01-12T10:53:16.332Z,6.40
2019-01-12T10:54:09.610Z,6.35
2019-01-12T10:55:25.359Z,6.38
2019-01-12T10:56:09.572Z,6.40
2019-01-12T10:57:09.610Z,6.36
2019-01-12T10:58:09.527Z,6.39
2019-01-12T10:59:16.397Z,6.40
2019-01-12T11:00:09.437Z,6.38
2019-01-12T11:01:11.486Z,6.39
2019-01-12T11:02:09.373Z,6.36
2019-01-12T11:03:09.441Z,6.40
2019-01-12T11:04:09.294Z,6.43
2019-01-12T11:05:09.320Z,6.33
2019-01-12T11:06:09.236Z,6.42
2019-01-12T11:07:09.198Z,6.35
2019-01-12T11:08:09.273Z,6.36
2019-01-12T11:09:09.133Z,6.39
2019-01-12T11:10:09.119Z,6.28
2019-01-12T11:11:09.085Z,6.35
2019-01-12T11:12:09.060Z,6.27
2019-01-12T11:13:09.093Z,6.45
2019-01-12T11:14:08.974Z,6.32
2019-01-12T11:15:08.958Z,6.28
2019-01-12T11:16:08.920Z,6.35
2019-01-12T11:17:08.880Z,6.33
2019-01-12T11:18:29.899Z,6.32
2019-01-12T11:19:08.823Z,6.33
2019-01-12T11:20:08.807Z,6.39
2019-01-12T11:21:15.410Z,6.33
2019-01-12T11:22:08.736Z,6.21
2019-01-12T11:23:08.697Z,6.33
2019-01-12T11:24:08.679Z,6.25
2019-01-12T11:25:08.619Z,6.30
2019-01-12T11:26:08.615Z,6.32
2019-01-12T11:27:12.220Z,6.33
2019-01-12T11:28:08.562Z,6.36
2019-01-12T11:29:08.494Z,6.32
2019-01-12T11:30:08.579Z,6.33
2019-01-12T11:31:08.441Z,6.30
2019-01-12T11:32:08.414Z,6.35
2019-01-12T11:33:08.368Z,6.36
2019-01-12T11:34:08.334Z,6.33
2019-01-12T11:35:08.317Z,6.35
2019-01-12T11:36:08.413Z,6.36
2019-01-12T11:37:08.233Z,6.35
2019-01-12T11:38:08.286Z,6.39
2019-01-12T11:39:08.204Z,6.38
2019-01-12T11:40:08.200Z,6.38
2019-01-12T11:41:08.124Z,6.39
2019-01-12T11:42:08.190Z,6.36
2019-01-12T11:43:08.052Z,6.39
2019-01-12T11:44:08.106Z,6.35
2019-01-12T11:45:08.002Z,6.43
2019-01-12T11:46:08.027Z,6.40
2019-01-12T11:47:07.921Z,6.33
2019-01-12T11:48:07.942Z,6.25
2019-01-12T11:49:07.867Z,6.32
2019-01-12T11:50:07.850Z,6.30
2019-01-12T11:51:07.787Z,6.35
2019-01-12T11:52:07.857Z,6.39
2019-01-12T11:53:07.741Z,6.33
2019-01-12T11:54:08.749Z,6.33
2019-01-12T11:55:07.675Z,6.36
2019-01-12T12:25:30.915Z,6.39
2019-01-12T12:25:58.260Z,6.33
2019-01-12T12:26:58.221Z,6.35
2019-01-12T12:28:26.199Z,6.35
2019-01-12T12:28:58.150Z,6.33
2019-01-12T12:29:58.162Z,6.35
2019-01-12T12:37:46.764Z,6.43
2019-01-12T12:38:18.766Z,6.39
2019-01-12T12:39:18.751Z,6.38
2019-01-12T12:40:35.713Z,6.43
2019-01-12T12:41:18.608Z,6.39
2019-01-12T12:42:35.613Z,6.46
2019-01-12T12:43:18.537Z,6.40
2019-01-12T12:44:25.177Z,6.46
2019-01-12T12:45:18.486Z,6.32
2019-01-12T12:49:41.749Z,6.53
2019-01-12T12:50:39.009Z,6.43
2019-01-12T12:51:38.981Z,6.45
2019-01-12T12:52:38.946Z,6.43
2019-01-12T12:53:38.916Z,6.45
2019-01-12T12:54:38.886Z,6.42
2019-01-12T12:55:38.839Z,6.40
2019-01-12T12:56:38.815Z,6.43
2019-01-12T12:57:38.822Z,6.42
2019-01-12T12:58:38.752Z,6.45
2019-01-12T12:59:38.716Z,6.38
2019-01-12T13:00:38.697Z,6.43
2019-01-12T13:01:38.769Z,6.45
2019-01-12T13:02:38.617Z,6.36
2019-01-12T13:03:38.706Z,6.50
2019-01-12T13:04:38.606Z,6.48
2019-01-12T13:05:38.628Z,6.46
2019-01-12T13:06:38.498Z,6.42
2019-01-12T13:07:38.539Z,6.39
2019-01-12T13:08:38.430Z,6.43
2019-01-12T13:09:38.618Z,6.39
2019-01-12T13:10:38.377Z,6.42
2019-01-12T13:11:38.464Z,6.42
2019-01-12T13:12:38.307Z,6.51
2019-01-12T13:13:39.427Z,6.43
2019-01-12T13:14:38.251Z,6.43
2019-01-12T13:15:38.285Z,6.48
2019-01-12T13:16:38.228Z,6.42
2019-01-12T13:17:40.269Z,6.45
2019-01-12T13:18:38.113Z,6.46
2019-01-12T13:19:38.095Z,6.42
2019-01-12T13:20:38.053Z,6.45
2019-01-12T13:21:38.113Z,6.53
2019-01-12T13:22:37.996Z,6.46
2019-01-12T13:23:38.039Z,6.42
2019-01-12T13:24:37.937Z,6.54
2019-01-12T13:25:38.007Z,6.48
2019-01-12T13:26:37.868Z,6.50
2019-01-12T13:27:40.013Z,6.50
2019-01-12T13:28:37.799Z,6.53
2019-01-12T13:29:37.871Z,6.60
2019-01-12T13:30:37.760Z,6.57
2019-01-12T13:31:37.770Z,6.58
2019-01-12T13:32:37.690Z,6.63
2019-01-12T13:33:38.745Z,6.63
2019-01-12T13:34:37.621Z,6.61
2019-01-12T13:35:37.592Z,6.61
2019-01-12T13:36:37.552Z,6.60
2019-01-12T13:37:37.636Z,6.61
2019-01-12T13:38:37.474Z,6.65
2019-01-12T13:39:37.530Z,6.64
2019-01-12T13:40:37.434Z,6.60
2019-01-12T13:41:37.459Z,6.63
2019-01-12T13:42:37.390Z,6.64
2019-01-12T13:43:37.373Z,6.61
2019-01-12T13:44:37.317Z,6.55
2019-01-12T13:45:37.359Z,6.63
2019-01-12T13:46:37.224Z,6.68
2019-01-12T13:47:37.270Z,6.68
2019-01-12T13:48:37.160Z,6.73
2019-01-12T13:49:37.187Z,6.65
2019-01-12T13:50:37.113Z,6.65
2019-01-12T13:51:38.178Z,6.71
2019-01-12T13:52:37.043Z,6.73
2019-01-12T13:53:38.091Z,6.68
2019-01-12T13:54:36.968Z,6.83
2019-01-12T13:55:51.751Z,6.81
2019-01-12T13:56:36.938Z,6.79
2019-01-12T14:06:18.792Z,6.89